Maija — OI5359 — position and weather

sailwx.info

Track history (hours):
 
Tides and Currents Weather Stations Pressure Air Temp Water Temp Dewpoint Dewpoint Depression Visibility Wind Speed Wind Dir Waves Ship Positions

Maija

Last reported at 2017-Jul-01 11:40 UTC. Time now 2017-Sep-26 14:50 UTC.
Position N 59°55' E 023°45'.
Warning: this ship's position is months out of date.

Length 15 m.

Type: Diving. MMSI: 230030370.

Date/timePositionNaut miles runAvg speedWind from/ knotsBaromVisibWave heightAir tempDewpointWater temp
2017-Jul-01 11:40N 59°55' E 023°45'1 6.3
2017-Jul-01 11:30N 59°54' E 023°43'3 6.2
2017-Jul-01 11:00N 59°53' E 023°38'3 5.6
2017-Jul-01 10:30N 59°52' E 023°33'2 3.4
2017-Jul-01 10:00N 59°53' E 023°31'0 0.0
2017-Jul-01 09:30N 59°53' E 023°31'0 0.0
2017-Jul-01 09:00N 59°53' E 023°31'0 0.0
2017-Jul-01 08:30N 59°53' E 023°31'0 0.0
2017-Jul-01 08:00N 59°53' E 023°31'0 0.0
2017-Jul-01 07:30N 59°53' E 023°31'0 0.0
2017-Jul-01 07:00N 59°53' E 023°31'0 0.0
2017-Jul-01 06:30N 59°53' E 023°31'0 0.0
2017-Jul-01 06:00N 59°53' E 023°31'0 0.0
2017-Jul-01 05:30N 59°53' E 023°31'0 0.0
2017-Jul-01 05:00N 59°53' E 023°31'0 0.0
2017-Jul-01 04:30N 59°53' E 023°31'0 0.0
2017-Jul-01 04:00N 59°53' E 023°31'0 0.0
2017-Jul-01 03:30N 59°53' E 023°31'0 0.0
2017-Jul-01 03:00N 59°53' E 023°31'0 0.0
2017-Jul-01 02:30N 59°53' E 023°31'0 0.0
2017-Jul-01 02:00N 59°53' E 023°31'0 0.0
2017-Jul-01 01:30N 59°53' E 023°31'0 0.0
2017-Jul-01 01:00N 59°53' E 023°31'0 0.0
2017-Jul-01 00:30N 59°53' E 023°31'0 0.0
2017-Jul-01 00:00N 59°53' E 023°31'0 0.0
2017-Jun-30 23:30N 59°53' E 023°31'0 0.0
2017-Jun-30 23:00N 59°53' E 023°31'0 0.0
2017-Jun-30 22:30N 59°53' E 023°31'0 0.0
2017-Jun-30 22:00N 59°53' E 023°31'0 0.0
2017-Jun-30 21:30N 59°53' E 023°31'0 0.0
2017-Jun-30 21:00N 59°53' E 023°31'0 0.0
2017-Jun-30 20:30N 59°53' E 023°31'0 0.0
2017-Jun-30 20:00N 59°53' E 023°31'0 0.0
2017-Jun-30 19:30N 59°53' E 023°31'0 0.0
2017-Jun-30 19:00N 59°53' E 023°31'0 0.0
2017-Jun-30 18:30N 59°53' E 023°31'0 0.0
2017-Jun-30 18:00N 59°53' E 023°31'0 0.0
2017-Jun-30 17:30N 59°53' E 023°31'0 0.0
2017-Jun-30 17:00N 59°53' E 023°31'0 0.0
2017-Jun-30 16:30N 59°53' E 023°31'0 0.0
2017-Jun-30 16:00N 59°53' E 023°31'0 0.0
2017-Jun-30 15:30N 59°53' E 023°31'0 0.0
2017-Jun-30 15:00N 59°53' E 023°31'0 0.0
2017-Jun-30 14:30N 59°53' E 023°31'0 0.0
2017-Jun-30 14:00N 59°53' E 023°31'4 1.4
2017-Jun-30 11:12N 59°50' E 023°34'0 0.1
2017-Jun-30 10:58N 59°50' E 023°34'0 0.0
2017-Jun-30 10:30N 59°50' E 023°34'0 0.1
2017-Jun-30 10:00N 59°50' E 023°34'0 0.2
2017-Jun-30 09:18N 59°50' E 023°34'0 0.0
2017-Jun-30 08:57N 59°50' E 023°34'0 0.0
2017-Jun-30 08:27N 59°50' E 023°34'0 0.0
2017-Jun-30 07:57N 59°50' E 023°34'0 0.0
2017-Jun-30 07:30N 59°50' E 023°34'0 0.0
2017-Jun-30 06:57N 59°50' E 023°34'0 0.0
2017-Jun-30 06:27N 59°50' E 023°34'0 0.0
2017-Jun-30 05:51N 59°50' E 023°34'0 0.0
2017-Jun-30 05:27N 59°50' E 023°34'0 0.0
2017-Jun-30 04:57N 59°50' E 023°34'0 0.0
2017-Jun-30 04:30N 59°50' E 023°34'0 0.0
2017-Jun-30 03:54N 59°50' E 023°34'0 0.0
2017-Jun-30 03:27N 59°50' E 023°34'0 0.0
2017-Jun-30 03:00N 59°50' E 023°34'0 0.0
2017-Jun-30 02:27N 59°50' E 023°34'0 0.0
2017-Jun-30 02:00N 59°50' E 023°34'0 0.0
2017-Jun-30 01:30N 59°50' E 023°34'0 0.0
2017-Jun-30 01:00N 59°50' E 023°34'0 0.0
2017-Jun-30 00:21N 59°50' E 023°34'0 0.0
2017-Jun-30 00:00N 59°50' E 023°34'0 0.0
2017-Jun-29 23:30N 59°50' E 023°34'0 0.0
2017-Jun-29 22:54N 59°50' E 023°34'0 0.0
2017-Jun-29 22:30N 59°50' E 023°34'0 0.0
2017-Jun-29 21:57N 59°50' E 023°34'0 0.0
2017-Jun-29 21:24N 59°50' E 023°34'0 0.0
2017-Jun-29 20:54N 59°50' E 023°34'0 0.0
2017-Jun-29 20:30N 59°50' E 023°34'0 0.0
2017-Jun-29 19:55N 59°50' E 023°34'0 0.0
2017-Jun-29 19:28N 59°50' E 023°34'0 0.0
2017-Jun-29 18:55N 59°50' E 023°34'0 0.0
2017-Jun-29 18:18N 59°50' E 023°34'0 0.0
2017-Jun-29 16:33N 59°50' E 023°34'0 0.7
2017-Jun-29 16:30N 59°50' E 023°34'3 6.1
2017-Jun-29 16:00N 59°50' E 023°28'1 0.5
2017-Jun-29 13:45N 59°49' E 023°27'0 0.0
2017-Jun-29 12:45N 59°49' E 023°27'0 0.0
2017-Jun-29 12:21N 59°49' E 023°27'0 0.0
2017-Jun-29 11:03N 59°49' E 023°27'0 0.0
2017-Jun-29 10:33N 59°49' E 023°27'0 0.0
2017-Jun-29 10:09N 59°49' E 023°27'0 0.0
2017-Jun-29 09:21N 59°49' E 023°27'0 0.0
2017-Jun-29 08:57N 59°49' E 023°27'0 0.0
2017-Jun-29 08:27N 59°49' E 023°27'0 0.0
2017-Jun-29 07:57N 59°49' E 023°27'0 0.2
2017-Jun-29 07:26N 59°49' E 023°26'1 1.2
2017-Jun-29 07:00N 59°50' E 023°27'3 6.4
2017-Jun-29 06:30N 59°50' E 023°33'1 1.4
2017-Jun-29 06:00N 59°50' E 023°34'0 0.0
2017-Jun-29 05:30N 59°50' E 023°34'0 0.0
2017-Jun-29 05:00N 59°50' E 023°34'0 0.0
2017-Jun-29 04:30N 59°50' E 023°34'0 0.0
2017-Jun-29 04:00N 59°50' E 023°34'0 0.0
2017-Jun-29 03:28N 59°50' E 023°34'0 0.0
2017-Jun-29 02:58N 59°50' E 023°34'0 0.0
2017-Jun-29 02:28N 59°50' E 023°34'0 0.0
2017-Jun-29 01:58N 59°50' E 023°34'0 0.0
2017-Jun-29 01:28N 59°50' E 023°34'0 0.0
2017-Jun-29 00:58N 59°50' E 023°34'0 0.0
2017-Jun-29 00:28N 59°50' E 023°34'0 0.0
2017-Jun-28 23:58N 59°50' E 023°34'0 0.0
2017-Jun-28 23:28N 59°50' E 023°34'0 0.0
2017-Jun-28 22:58N 59°50' E 023°34'0 0.0
2017-Jun-28 22:28N 59°50' E 023°34'0 0.0
2017-Jun-28 21:58N 59°50' E 023°34'0 0.0
2017-Jun-28 21:28N 59°50' E 023°34'0 0.0
2017-Jun-28 20:58N 59°50' E 023°34'0 0.0
2017-Jun-28 20:28N 59°50' E 023°34'0 0.0
2017-Jun-28 19:58N 59°50' E 023°34'0 0.0
2017-Jun-28 19:28N 59°50' E 023°34'0 0.0
2017-Jun-28 18:58N 59°50' E 023°34'0 0.1
2017-Jun-28 18:30N 59°50' E 023°34'3 5.1
2017-Jun-28 17:51N 59°53' E 023°31'1 1.8
2017-Jun-28 17:30N 59°53' E 023°31'2 4.0
2017-Jun-28 17:00N 59°52' E 023°33'2 4.6
2017-Jun-28 16:30N 59°50' E 023°33'2 0.7
2017-Jun-28 13:06N 59°47' E 023°33'0 0.1
2017-Jun-28 12:51N 59°47' E 023°33'1 2.1
2017-Jun-28 12:30N 59°48' E 023°35'0 0.3
2017-Jun-28 11:57N 59°48' E 023°34'0 0.0
2017-Jun-28 11:30N 59°48' E 023°34'0 0.0
2017-Jun-28 11:00N 59°48' E 023°34'0 0.0
2017-Jun-28 10:27N 59°48' E 023°34'0 0.0
2017-Jun-28 10:00N 59°48' E 023°34'0 0.0
2017-Jun-28 09:30N 59°48' E 023°34'0 0.0
2017-Jun-28 08:57N 59°48' E 023°34'0 0.0
2017-Jun-28 08:30N 59°48' E 023°34'0 0.0
2017-Jun-28 07:57N 59°48' E 023°34'0 0.0
2017-Jun-28 07:30N 59°48' E 023°34'1 1.2
2017-Jun-28 07:00N 59°48' E 023°35'2 3.1
2017-Jun-28 06:29N 59°50' E 023°34'0 0.1
2017-Jun-28 06:00N 59°50' E 023°34'0 0.0
2017-Jun-28 05:30N 59°50' E 023°34'0 0.0
2017-Jun-28 05:00N 59°50' E 023°34'0 0.0
2017-Jun-28 04:30N 59°50' E 023°34'0 0.0
2017-Jun-28 04:00N 59°50' E 023°34'0 0.0
2017-Jun-28 03:30N 59°50' E 023°34'0 0.0
2017-Jun-28 03:00N 59°50' E 023°34'0 0.0
2017-Jun-28 02:30N 59°50' E 023°34'0 0.0
2017-Jun-28 02:00N 59°50' E 023°34'0 0.0
2017-Jun-28 01:30N 59°50' E 023°34'0 0.0
2017-Jun-28 01:00N 59°50' E 023°34'0 0.0
2017-Jun-28 00:30N 59°50' E 023°34'0 0.0
2017-Jun-28 00:00N 59°50' E 023°34'0 0.0
2017-Jun-27 23:30N 59°50' E 023°34'0 0.0
2017-Jun-27 23:00N 59°50' E 023°34'0 0.0
2017-Jun-27 22:30N 59°50' E 023°34'0 0.0
2017-Jun-27 22:00N 59°50' E 023°34'0 0.0
2017-Jun-27 21:30N 59°50' E 023°34'0 0.0
2017-Jun-27 21:00N 59°50' E 023°34'0 0.0
2017-Jun-27 20:30N 59°50' E 023°34'0 0.0
2017-Jun-27 20:00N 59°50' E 023°34'0 0.0
2017-Jun-27 19:30N 59°50' E 023°34'0 0.0
2017-Jun-27 19:00N 59°50' E 023°34'0 0.0
2017-Jun-27 18:30N 59°50' E 023°34'0 0.0
2017-Jun-27 18:00N 59°50' E 023°34'0 0.0
2017-Jun-27 17:30N 59°50' E 023°34'0 0.0
2017-Jun-27 17:00N 59°50' E 023°34'0 0.0
2017-Jun-27 16:30N 59°50' E 023°34'0 0.0
2017-Jun-27 16:00N 59°50' E 023°34'1 1.0
2017-Jun-27 15:30N 59°50' E 023°35'3 5.4
2017-Jun-27 15:00N 59°52' E 023°38'2 4.7
2017-Jun-27 14:30N 59°54' E 023°41'0 0.0
2017-Jun-27 13:18N 59°54' E 023°41'0 0.1
2017-Jun-27 12:56N 59°54' E 023°41'0 0.0
2017-Jun-27 12:25N 59°54' E 023°41'0 0.1
2017-Jun-27 12:01N 59°54' E 023°41'0 0.8
2017-Jun-27 11:28N 59°54' E 023°42'0 0.2
2017-Jun-27 10:48N 59°54' E 023°42'0 0.5
2017-Jun-27 10:29N 59°54' E 023°42'0 0.7
2017-Jun-27 09:59N 59°54' E 023°41'2 5.0
2017-Jun-27 09:30N 59°52' E 023°37'0 0.2
2017-Jun-27 08:59N 59°52' E 023°38'0 0.6
2017-Jun-27 08:29N 59°52' E 023°38'0 0.7
2017-Jun-27 08:00N 59°52' E 023°38'0 0.3
2017-Jun-27 07:29N 59°52' E 023°37'1 1.3
2017-Jun-27 07:00N 59°52' E 023°36'2 4.2
2017-Jun-27 06:28N 59°50' E 023°34'0 0.0
2017-Jun-27 05:58N 59°50' E 023°34'0 0.0
2017-Jun-27 05:28N 59°50' E 023°34'0 0.0
2017-Jun-27 04:58N 59°50' E 023°34'0 0.0
2017-Jun-27 04:28N 59°50' E 023°34'0 0.0
2017-Jun-27 03:58N 59°50' E 023°34'0 0.0
2017-Jun-27 03:28N 59°50' E 023°34'0 0.0
2017-Jun-27 02:58N 59°50' E 023°34'0 0.0
2017-Jun-27 02:28N 59°50' E 023°34'0 0.0
2017-Jun-27 01:58N 59°50' E 023°34'0 0.0
2017-Jun-27 01:28N 59°50' E 023°34'0 0.0
2017-Jun-27 00:58N 59°50' E 023°34'0 0.0
2017-Jun-27 00:28N 59°50' E 023°34'0 0.0
2017-Jun-26 23:58N 59°50' E 023°34'0 0.0
2017-Jun-26 23:28N 59°50' E 023°34'0 0.0
2017-Jun-26 22:58N 59°50' E 023°34'0 0.0
2017-Jun-26 22:28N 59°50' E 023°34'0 0.0
2017-Jun-26 21:58N 59°50' E 023°34'0 0.0
2017-Jun-26 21:28N 59°50' E 023°34'0 0.0
2017-Jun-26 20:58N 59°50' E 023°34'0 0.0
2017-Jun-26 20:28N 59°50' E 023°34'0 0.0
2017-Jun-26 19:55N 59°50' E 023°34'0 0.0
2017-Jun-26 19:28N 59°50' E 023°34'0 0.0
2017-Jun-26 18:58N 59°50' E 023°34'0 0.0
2017-Jun-26 18:10N 59°50' E 023°34'0 0.0
2017-Jun-26 17:55N 59°50' E 023°34'0 0.0
2017-Jun-26 17:28N 59°50' E 023°34'0 0.0
2017-Jun-26 16:58N 59°50' E 023°34'2 4.2
2017-Jun-26 16:30N 59°51' E 023°36'1 1.5
2017-Jun-26 16:00N 59°52' E 023°37'0 1.0
2017-Jun-26 15:30N 59°52' E 023°36'0 0.7
2017-Jun-26 15:00N 59°52' E 023°37'0 0.1
2017-Jun-26 14:00N 59°52' E 023°37'2 3.9
2017-Jun-26 13:31N 59°50' E 023°35'1 1.0
2017-Jun-26 12:54N 59°50' E 023°34'0 0.0
2017-Jun-26 12:30N 59°50' E 023°34'0 0.0
2017-Jun-26 12:00N 59°50' E 023°34'0 0.0
2017-Jun-26 11:30N 59°50' E 023°34'0 0.8
2017-Jun-26 10:59N 59°50' E 023°35'0 0.1
2017-Jun-26 10:29N 59°50' E 023°35'0 0.1
2017-Jun-26 10:00N 59°50' E 023°35'0 0.1
2017-Jun-26 09:30N 59°50' E 023°35'0 0.1
2017-Jun-26 09:00N 59°50' E 023°35'0 0.5
2017-Jun-26 08:30N 59°50' E 023°34'0 0.1
2017-Jun-26 07:56N 59°50' E 023°34'0 0.3
2017-Jun-26 07:29N 59°50' E 023°34'0 0.0
2017-Jun-26 06:59N 59°50' E 023°34'0 0.0
2017-Jun-26 06:29N 59°50' E 023°34'0 0.0
2017-Jun-26 05:59N 59°50' E 023°34'0 0.0
2017-Jun-26 05:29N 59°50' E 023°34'0 0.0
2017-Jun-26 04:56N 59°50' E 023°34'0 0.0
2017-Jun-26 04:29N 59°50' E 023°34'0 0.0
2017-Jun-26 03:59N 59°50' E 023°34'0 0.0
2017-Jun-26 03:29N 59°50' E 023°34'0 0.0
2017-Jun-26 02:59N 59°50' E 023°34'0 0.0
2017-Jun-26 02:29N 59°50' E 023°34'0 0.0
2017-Jun-26 01:59N 59°50' E 023°34'0 0.0
2017-Jun-26 01:29N 59°50' E 023°34'0 0.0
2017-Jun-26 00:59N 59°50' E 023°34'0 0.0
2017-Jun-26 00:26N 59°50' E 023°34'0 0.0
2017-Jun-25 23:59N 59°50' E 023°34'0 0.0
2017-Jun-25 23:29N 59°50' E 023°34'0 0.0
2017-Jun-25 22:59N 59°50' E 023°34'0 0.3
2017-Jun-25 22:27N 59°50' E 023°34'0 0.0
2017-Jun-25 22:00N 59°50' E 023°34'2 3.3
2017-Jun-25 21:30N 59°52' E 023°34'2 4.7
2017-Jun-25 20:59N 59°53' E 023°31'0 0.0
2017-Jun-25 20:29N 59°53' E 023°31'0 0.0
2017-Jun-25 19:59N 59°53' E 023°31'0 0.0
2017-Jun-25 19:29N 59°53' E 023°31'0 0.0
2017-Jun-25 18:56N 59°53' E 023°31'0 0.0
2017-Jun-25 18:29N 59°53' E 023°31'0 0.0
2017-Jun-25 17:59N 59°53' E 023°31'0 0.0
2017-Jun-25 17:29N 59°53' E 023°31'0 0.0
2017-Jun-25 16:59N 59°53' E 023°31'0 0.0
2017-Jun-25 16:29N 59°53' E 023°31'  
2017-Jun-22 07:45N 59°53' E 023°31'0 0.0
2017-Jun-22 07:30N 59°53' E 023°31'0 0.0
2017-Jun-22 07:00N 59°53' E 023°31'0 0.0
2017-Jun-22 06:30N 59°53' E 023°31'0 0.0
2017-Jun-22 06:00N 59°53' E 023°31'0 0.0
2017-Jun-22 05:30N 59°53' E 023°31'0 0.0
2017-Jun-22 05:00N 59°53' E 023°31'0 0.0
2017-Jun-22 04:30N 59°53' E 023°31'0 0.0
2017-Jun-22 04:00N 59°53' E 023°31'0 0.0
2017-Jun-22 03:30N 59°53' E 023°31'0 0.0
2017-Jun-22 03:00N 59°53' E 023°31'0 0.0
2017-Jun-22 02:30N 59°53' E 023°31'0 0.0
2017-Jun-22 02:00N 59°53' E 023°31'0 0.0
2017-Jun-22 01:30N 59°53' E 023°31'0 0.0
2017-Jun-22 01:00N 59°53' E 023°31'0 0.0
2017-Jun-22 00:31N 59°53' E 023°31'0 0.0
2017-Jun-22 00:00N 59°53' E 023°31'0 0.0
2017-Jun-21 23:30N 59°53' E 023°31'0 0.0
2017-Jun-21 22:58N 59°53' E 023°31'0 0.0
2017-Jun-21 22:30N 59°53' E 023°31'0 0.0
2017-Jun-21 22:01N 59°53' E 023°31'0 0.0
2017-Jun-21 21:31N 59°53' E 023°31'0 0.0
2017-Jun-21 21:00N 59°53' E 023°31'0 0.0
2017-Jun-21 20:28N 59°53' E 023°31'0 0.0
2017-Jun-21 19:58N 59°53' E 023°31'0 0.0
2017-Jun-21 19:31N 59°53' E 023°31'0 0.0
2017-Jun-21 18:58N 59°53' E 023°31'0 0.0
2017-Jun-21 18:31N 59°53' E 023°31'0 0.0
2017-Jun-21 18:01N 59°53' E 023°31'0 0.0
2017-Jun-21 17:28N 59°53' E 023°31'0 0.0
2017-Jun-21 16:58N 59°53' E 023°31'0 0.0
2017-Jun-21 16:25N 59°53' E 023°31'0 0.0
2017-Jun-21 15:58N 59°53' E 023°31'0 0.0
2017-Jun-21 15:28N 59°53' E 023°31'0 0.0
2017-Jun-21 14:58N 59°53' E 023°31'0 0.0
2017-Jun-21 14:28N 59°53' E 023°31'0 0.3
2017-Jun-21 13:30N 59°53' E 023°31'4 7.0
2017-Jun-21 13:00N 59°50' E 023°35'1 1.0
2017-Jun-21 12:28N 59°50' E 023°34'0 0.2
2017-Jun-21 11:56N 59°50' E 023°34'  
Track history (hours):
 
Tides and Currents Weather Stations Pressure Air Temp Water Temp Dewpoint Dewpoint Depression Visibility Wind Speed Wind Dir Waves Ship Positions

Maija

Last reported at 2017-Jul-01 11:40 UTC. Time now 2017-Sep-26 14:50 UTC.
Position N 59°55' E 023°45'.
Warning: this ship's position is months out of date.

Length 15 m.

Type: Diving. MMSI: 230030370.

Date/timePositionNaut miles runAvg speedWind from/ knotsBaromVisibWave heightAir tempDewpointWater temp
2017-Jul-01 11:40N 59°55' E 023°45'1 6.3
2017-Jul-01 11:30N 59°54' E 023°43'3 6.2
2017-Jul-01 11:00N 59°53' E 023°38'3 5.6
2017-Jul-01 10:30N 59°52' E 023°33'2 3.4
2017-Jul-01 10:00N 59°53' E 023°31'0 0.0
2017-Jul-01 09:30N 59°53' E 023°31'0 0.0
2017-Jul-01 09:00N 59°53' E 023°31'0 0.0
2017-Jul-01 08:30N 59°53' E 023°31'0 0.0
2017-Jul-01 08:00N 59°53' E 023°31'0 0.0
2017-Jul-01 07:30N 59°53' E 023°31'0 0.0
2017-Jul-01 07:00N 59°53' E 023°31'0 0.0
2017-Jul-01 06:30N 59°53' E 023°31'0 0.0
2017-Jul-01 06:00N 59°53' E 023°31'0 0.0
2017-Jul-01 05:30N 59°53' E 023°31'0 0.0
2017-Jul-01 05:00N 59°53' E 023°31'0 0.0
2017-Jul-01 04:30N 59°53' E 023°31'0 0.0
2017-Jul-01 04:00N 59°53' E 023°31'0 0.0
2017-Jul-01 03:30N 59°53' E 023°31'0 0.0
2017-Jul-01 03:00N 59°53' E 023°31'0 0.0
2017-Jul-01 02:30N 59°53' E 023°31'0 0.0
2017-Jul-01 02:00N 59°53' E 023°31'0 0.0
2017-Jul-01 01:30N 59°53' E 023°31'0 0.0
2017-Jul-01 01:00N 59°53' E 023°31'0 0.0
2017-Jul-01 00:30N 59°53' E 023°31'0 0.0
2017-Jul-01 00:00N 59°53' E 023°31'0 0.0
2017-Jun-30 23:30N 59°53' E 023°31'0 0.0
2017-Jun-30 23:00N 59°53' E 023°31'0 0.0
2017-Jun-30 22:30N 59°53' E 023°31'0 0.0
2017-Jun-30 22:00N 59°53' E 023°31'0 0.0
2017-Jun-30 21:30N 59°53' E 023°31'0 0.0
2017-Jun-30 21:00N 59°53' E 023°31'0 0.0
2017-Jun-30 20:30N 59°53' E 023°31'0 0.0
2017-Jun-30 20:00N 59°53' E 023°31'0 0.0
2017-Jun-30 19:30N 59°53' E 023°31'0 0.0
2017-Jun-30 19:00N 59°53' E 023°31'0 0.0
2017-Jun-30 18:30N 59°53' E 023°31'0 0.0
2017-Jun-30 18:00N 59°53' E 023°31'0 0.0
2017-Jun-30 17:30N 59°53' E 023°31'0 0.0
2017-Jun-30 17:00N 59°53' E 023°31'0 0.0
2017-Jun-30 16:30N 59°53' E 023°31'0 0.0
2017-Jun-30 16:00N 59°53' E 023°31'0 0.0
2017-Jun-30 15:30N 59°53' E 023°31'0 0.0
2017-Jun-30 15:00N 59°53' E 023°31'0 0.0
2017-Jun-30 14:30N 59°53' E 023°31'0 0.0
2017-Jun-30 14:00N 59°53' E 023°31'4 1.4
2017-Jun-30 11:12N 59°50' E 023°34'0 0.1
2017-Jun-30 10:58N 59°50' E 023°34'0 0.0
2017-Jun-30 10:30N 59°50' E 023°34'0 0.1
2017-Jun-30 10:00N 59°50' E 023°34'0 0.2
2017-Jun-30 09:18N 59°50' E 023°34'0 0.0
2017-Jun-30 08:57N 59°50' E 023°34'0 0.0
2017-Jun-30 08:27N 59°50' E 023°34'0 0.0
2017-Jun-30 07:57N 59°50' E 023°34'0 0.0
2017-Jun-30 07:30N 59°50' E 023°34'0 0.0
2017-Jun-30 06:57N 59°50' E 023°34'0 0.0
2017-Jun-30 06:27N 59°50' E 023°34'0 0.0
2017-Jun-30 05:51N 59°50' E 023°34'0 0.0
2017-Jun-30 05:27N 59°50' E 023°34'0 0.0
2017-Jun-30 04:57N 59°50' E 023°34'0 0.0
2017-Jun-30 04:30N 59°50' E 023°34'0 0.0
2017-Jun-30 03:54N 59°50' E 023°34'0 0.0
2017-Jun-30 03:27N 59°50' E 023°34'0 0.0
2017-Jun-30 03:00N 59°50' E 023°34'0 0.0
2017-Jun-30 02:27N 59°50' E 023°34'0 0.0
2017-Jun-30 02:00N 59°50' E 023°34'0 0.0
2017-Jun-30 01:30N 59°50' E 023°34'0 0.0
2017-Jun-30 01:00N 59°50' E 023°34'0 0.0
2017-Jun-30 00:21N 59°50' E 023°34'0 0.0
2017-Jun-30 00:00N 59°50' E 023°34'0 0.0
2017-Jun-29 23:30N 59°50' E 023°34'0 0.0
2017-Jun-29 22:54N 59°50' E 023°34'0 0.0
2017-Jun-29 22:30N 59°50' E 023°34'0 0.0
2017-Jun-29 21:57N 59°50' E 023°34'0 0.0
2017-Jun-29 21:24N 59°50' E 023°34'0 0.0
2017-Jun-29 20:54N 59°50' E 023°34'0 0.0
2017-Jun-29 20:30N 59°50' E 023°34'0 0.0
2017-Jun-29 19:55N 59°50' E 023°34'0 0.0
2017-Jun-29 19:28N 59°50' E 023°34'0 0.0
2017-Jun-29 18:55N 59°50' E 023°34'0 0.0
2017-Jun-29 18:18N 59°50' E 023°34'0 0.0
2017-Jun-29 16:33N 59°50' E 023°34'0 0.7
2017-Jun-29 16:30N 59°50' E 023°34'3 6.1
2017-Jun-29 16:00N 59°50' E 023°28'1 0.5
2017-Jun-29 13:45N 59°49' E 023°27'0 0.0
2017-Jun-29 12:45N 59°49' E 023°27'0 0.0
2017-Jun-29 12:21N 59°49' E 023°27'0 0.0
2017-Jun-29 11:03N 59°49' E 023°27'0 0.0
2017-Jun-29 10:33N 59°49' E 023°27'0 0.0
2017-Jun-29 10:09N 59°49' E 023°27'0 0.0
2017-Jun-29 09:21N 59°49' E 023°27'0 0.0
2017-Jun-29 08:57N 59°49' E 023°27'0 0.0
2017-Jun-29 08:27N 59°49' E 023°27'0 0.0
2017-Jun-29 07:57N 59°49' E 023°27'0 0.2
2017-Jun-29 07:26N 59°49' E 023°26'1 1.2
2017-Jun-29 07:00N 59°50' E 023°27'3 6.4
2017-Jun-29 06:30N 59°50' E 023°33'1 1.4
2017-Jun-29 06:00N 59°50' E 023°34'0 0.0
2017-Jun-29 05:30N 59°50' E 023°34'0 0.0
2017-Jun-29 05:00N 59°50' E 023°34'0 0.0
2017-Jun-29 04:30N 59°50' E 023°34'0 0.0
2017-Jun-29 04:00N 59°50' E 023°34'0 0.0
2017-Jun-29 03:28N 59°50' E 023°34'0 0.0
2017-Jun-29 02:58N 59°50' E 023°34'0 0.0
2017-Jun-29 02:28N 59°50' E 023°34'0 0.0
2017-Jun-29 01:58N 59°50' E 023°34'0 0.0
2017-Jun-29 01:28N 59°50' E 023°34'0 0.0
2017-Jun-29 00:58N 59°50' E 023°34'0 0.0
2017-Jun-29 00:28N 59°50' E 023°34'0 0.0
2017-Jun-28 23:58N 59°50' E 023°34'0 0.0
2017-Jun-28 23:28N 59°50' E 023°34'0 0.0
2017-Jun-28 22:58N 59°50' E 023°34'0 0.0
2017-Jun-28 22:28N 59°50' E 023°34'0 0.0
2017-Jun-28 21:58N 59°50' E 023°34'0 0.0
2017-Jun-28 21:28N 59°50' E 023°34'0 0.0
2017-Jun-28 20:58N 59°50' E 023°34'0 0.0
2017-Jun-28 20:28N 59°50' E 023°34'0 0.0
2017-Jun-28 19:58N 59°50' E 023°34'0 0.0
2017-Jun-28 19:28N 59°50' E 023°34'0 0.0
2017-Jun-28 18:58N 59°50' E 023°34'0 0.1
2017-Jun-28 18:30N 59°50' E 023°34'3 5.1
2017-Jun-28 17:51N 59°53' E 023°31'1 1.8
2017-Jun-28 17:30N 59°53' E 023°31'2 4.0
2017-Jun-28 17:00N 59°52' E 023°33'2 4.6
2017-Jun-28 16:30N 59°50' E 023°33'2 0.7
2017-Jun-28 13:06N 59°47' E 023°33'0 0.1
2017-Jun-28 12:51N 59°47' E 023°33'1 2.1
2017-Jun-28 12:30N 59°48' E 023°35'0 0.3
2017-Jun-28 11:57N 59°48' E 023°34'0 0.0
2017-Jun-28 11:30N 59°48' E 023°34'0 0.0
2017-Jun-28 11:00N 59°48' E 023°34'0 0.0
2017-Jun-28 10:27N 59°48' E 023°34'0 0.0
2017-Jun-28 10:00N 59°48' E 023°34'0 0.0
2017-Jun-28 09:30N 59°48' E 023°34'0 0.0
2017-Jun-28 08:57N 59°48' E 023°34'0 0.0
2017-Jun-28 08:30N 59°48' E 023°34'0 0.0
2017-Jun-28 07:57N 59°48' E 023°34'0 0.0
2017-Jun-28 07:30N 59°48' E 023°34'1 1.2
2017-Jun-28 07:00N 59°48' E 023°35'2 3.1
2017-Jun-28 06:29N 59°50' E 023°34'0 0.1
2017-Jun-28 06:00N 59°50' E 023°34'0 0.0
2017-Jun-28 05:30N 59°50' E 023°34'0 0.0
2017-Jun-28 05:00N 59°50' E 023°34'0 0.0
2017-Jun-28 04:30N 59°50' E 023°34'0 0.0
2017-Jun-28 04:00N 59°50' E 023°34'0 0.0
2017-Jun-28 03:30N 59°50' E 023°34'0 0.0
2017-Jun-28 03:00N 59°50' E 023°34'0 0.0
2017-Jun-28 02:30N 59°50' E 023°34'0 0.0
2017-Jun-28 02:00N 59°50' E 023°34'0 0.0
2017-Jun-28 01:30N 59°50' E 023°34'0 0.0
2017-Jun-28 01:00N 59°50' E 023°34'0 0.0
2017-Jun-28 00:30N 59°50' E 023°34'0 0.0
2017-Jun-28 00:00N 59°50' E 023°34'0 0.0
2017-Jun-27 23:30N 59°50' E 023°34'0 0.0
2017-Jun-27 23:00N 59°50' E 023°34'0 0.0
2017-Jun-27 22:30N 59°50' E 023°34'0 0.0
2017-Jun-27 22:00N 59°50' E 023°34'0 0.0
2017-Jun-27 21:30N 59°50' E 023°34'0 0.0
2017-Jun-27 21:00N 59°50' E 023°34'0 0.0
2017-Jun-27 20:30N 59°50' E 023°34'0 0.0
2017-Jun-27 20:00N 59°50' E 023°34'0 0.0
2017-Jun-27 19:30N 59°50' E 023°34'0 0.0
2017-Jun-27 19:00N 59°50' E 023°34'0 0.0
2017-Jun-27 18:30N 59°50' E 023°34'0 0.0
2017-Jun-27 18:00N 59°50' E 023°34'0 0.0
2017-Jun-27 17:30N 59°50' E 023°34'0 0.0
2017-Jun-27 17:00N 59°50' E 023°34'0 0.0
2017-Jun-27 16:30N 59°50' E 023°34'0 0.0
2017-Jun-27 16:00N 59°50' E 023°34'1 1.0
2017-Jun-27 15:30N 59°50' E 023°35'3 5.4
2017-Jun-27 15:00N 59°52' E 023°38'2 4.7
2017-Jun-27 14:30N 59°54' E 023°41'0 0.0
2017-Jun-27 13:18N 59°54' E 023°41'0 0.1
2017-Jun-27 12:56N 59°54' E 023°41'0 0.0
2017-Jun-27 12:25N 59°54' E 023°41'0 0.1
2017-Jun-27 12:01N 59°54' E 023°41'0 0.8
2017-Jun-27 11:28N 59°54' E 023°42'0 0.2
2017-Jun-27 10:48N 59°54' E 023°42'0 0.5
2017-Jun-27 10:29N 59°54' E 023°42'0 0.7
2017-Jun-27 09:59N 59°54' E 023°41'2 5.0
2017-Jun-27 09:30N 59°52' E 023°37'0 0.2
2017-Jun-27 08:59N 59°52' E 023°38'0 0.6
2017-Jun-27 08:29N 59°52' E 023°38'0 0.7
2017-Jun-27 08:00N 59°52' E 023°38'0 0.3
2017-Jun-27 07:29N 59°52' E 023°37'1 1.3
2017-Jun-27 07:00N 59°52' E 023°36'2 4.2
2017-Jun-27 06:28N 59°50' E 023°34'0 0.0
2017-Jun-27 05:58N 59°50' E 023°34'0 0.0
2017-Jun-27 05:28N 59°50' E 023°34'0 0.0
2017-Jun-27 04:58N 59°50' E 023°34'0 0.0
2017-Jun-27 04:28N 59°50' E 023°34'0 0.0
2017-Jun-27 03:58N 59°50' E 023°34'0 0.0
2017-Jun-27 03:28N 59°50' E 023°34'0 0.0
2017-Jun-27 02:58N 59°50' E 023°34'0 0.0
2017-Jun-27 02:28N 59°50' E 023°34'0 0.0
2017-Jun-27 01:58N 59°50' E 023°34'0 0.0
2017-Jun-27 01:28N 59°50' E 023°34'0 0.0
2017-Jun-27 00:58N 59°50' E 023°34'0 0.0
2017-Jun-27 00:28N 59°50' E 023°34'0 0.0
2017-Jun-26 23:58N 59°50' E 023°34'0 0.0
2017-Jun-26 23:28N 59°50' E 023°34'0 0.0
2017-Jun-26 22:58N 59°50' E 023°34'0 0.0
2017-Jun-26 22:28N 59°50' E 023°34'0 0.0
2017-Jun-26 21:58N 59°50' E 023°34'0 0.0
2017-Jun-26 21:28N 59°50' E 023°34'0 0.0
2017-Jun-26 20:58N 59°50' E 023°34'0 0.0
2017-Jun-26 20:28N 59°50' E 023°34'0 0.0
2017-Jun-26 19:55N 59°50' E 023°34'0 0.0
2017-Jun-26 19:28N 59°50' E 023°34'0 0.0
2017-Jun-26 18:58N 59°50' E 023°34'0 0.0
2017-Jun-26 18:10N 59°50' E 023°34'0 0.0
2017-Jun-26 17:55N 59°50' E 023°34'0 0.0
2017-Jun-26 17:28N 59°50' E 023°34'0 0.0
2017-Jun-26 16:58N 59°50' E 023°34'2 4.2
2017-Jun-26 16:30N 59°51' E 023°36'1 1.5
2017-Jun-26 16:00N 59°52' E 023°37'0 1.0
2017-Jun-26 15:30N 59°52' E 023°36'0 0.7
2017-Jun-26 15:00N 59°52' E 023°37'0 0.1
2017-Jun-26 14:00N 59°52' E 023°37'2 3.9
2017-Jun-26 13:31N 59°50' E 023°35'1 1.0
2017-Jun-26 12:54N 59°50' E 023°34'0 0.0
2017-Jun-26 12:30N 59°50' E 023°34'0 0.0
2017-Jun-26 12:00N 59°50' E 023°34'0 0.0
2017-Jun-26 11:30N 59°50' E 023°34'0 0.8
2017-Jun-26 10:59N 59°50' E 023°35'0 0.1
2017-Jun-26 10:29N 59°50' E 023°35'0 0.1
2017-Jun-26 10:00N 59°50' E 023°35'0 0.1
2017-Jun-26 09:30N 59°50' E 023°35'0 0.1
2017-Jun-26 09:00N 59°50' E 023°35'0 0.5
2017-Jun-26 08:30N 59°50' E 023°34'0 0.1
2017-Jun-26 07:56N 59°50' E 023°34'0 0.3
2017-Jun-26 07:29N 59°50' E 023°34'0 0.0
2017-Jun-26 06:59N 59°50' E 023°34'0 0.0
2017-Jun-26 06:29N 59°50' E 023°34'0 0.0
2017-Jun-26 05:59N 59°50' E 023°34'0 0.0
2017-Jun-26 05:29N 59°50' E 023°34'0 0.0
2017-Jun-26 04:56N 59°50' E 023°34'0 0.0
2017-Jun-26 04:29N 59°50' E 023°34'0 0.0
2017-Jun-26 03:59N 59°50' E 023°34'0 0.0
2017-Jun-26 03:29N 59°50' E 023°34'0 0.0
2017-Jun-26 02:59N 59°50' E 023°34'0 0.0
2017-Jun-26 02:29N 59°50' E 023°34'0 0.0
2017-Jun-26 01:59N 59°50' E 023°34'0 0.0
2017-Jun-26 01:29N 59°50' E 023°34'0 0.0
2017-Jun-26 00:59N 59°50' E 023°34'0 0.0
2017-Jun-26 00:26N 59°50' E 023°34'0 0.0
2017-Jun-25 23:59N 59°50' E 023°34'0 0.0
2017-Jun-25 23:29N 59°50' E 023°34'0 0.0
2017-Jun-25 22:59N 59°50' E 023°34'0 0.3
2017-Jun-25 22:27N 59°50' E 023°34'0 0.0
2017-Jun-25 22:00N 59°50' E 023°34'2 3.3
2017-Jun-25 21:30N 59°52' E 023°34'2 4.7
2017-Jun-25 20:59N 59°53' E 023°31'0 0.0
2017-Jun-25 20:29N 59°53' E 023°31'0 0.0
2017-Jun-25 19:59N 59°53' E 023°31'0 0.0
2017-Jun-25 19:29N 59°53' E 023°31'0 0.0
2017-Jun-25 18:56N 59°53' E 023°31'0 0.0
2017-Jun-25 18:29N 59°53' E 023°31'0 0.0
2017-Jun-25 17:59N 59°53' E 023°31'0 0.0
2017-Jun-25 17:29N 59°53' E 023°31'0 0.0
2017-Jun-25 16:59N 59°53' E 023°31'0 0.0
2017-Jun-25 16:29N 59°53' E 023°31'  
2017-Jun-22 07:45N 59°53' E 023°31'0 0.0
2017-Jun-22 07:30N 59°53' E 023°31'0 0.0
2017-Jun-22 07:00N 59°53' E 023°31'0 0.0
2017-Jun-22 06:30N 59°53' E 023°31'0 0.0
2017-Jun-22 06:00N 59°53' E 023°31'0 0.0
2017-Jun-22 05:30N 59°53' E 023°31'0 0.0
2017-Jun-22 05:00N 59°53' E 023°31'0 0.0
2017-Jun-22 04:30N 59°53' E 023°31'0 0.0
2017-Jun-22 04:00N 59°53' E 023°31'0 0.0
2017-Jun-22 03:30N 59°53' E 023°31'0 0.0
2017-Jun-22 03:00N 59°53' E 023°31'0 0.0
2017-Jun-22 02:30N 59°53' E 023°31'0 0.0
2017-Jun-22 02:00N 59°53' E 023°31'0 0.0
2017-Jun-22 01:30N 59°53' E 023°31'0 0.0
2017-Jun-22 01:00N 59°53' E 023°31'0 0.0
2017-Jun-22 00:31N 59°53' E 023°31'0 0.0
2017-Jun-22 00:00N 59°53' E 023°31'0 0.0
2017-Jun-21 23:30N 59°53' E 023°31'0 0.0
2017-Jun-21 22:58N 59°53' E 023°31'0 0.0
2017-Jun-21 22:30N 59°53' E 023°31'0 0.0
2017-Jun-21 22:01N 59°53' E 023°31'0 0.0
2017-Jun-21 21:31N 59°53' E 023°31'0 0.0
2017-Jun-21 21:00N 59°53' E 023°31'0 0.0
2017-Jun-21 20:28N 59°53' E 023°31'0 0.0
2017-Jun-21 19:58N 59°53' E 023°31'0 0.0
2017-Jun-21 19:31N 59°53' E 023°31'0 0.0
2017-Jun-21 18:58N 59°53' E 023°31'0 0.0
2017-Jun-21 18:31N 59°53' E 023°31'0 0.0
2017-Jun-21 18:01N 59°53' E 023°31'0 0.0
2017-Jun-21 17:28N 59°53' E 023°31'0 0.0
2017-Jun-21 16:58N 59°53' E 023°31'0 0.0
2017-Jun-21 16:25N 59°53' E 023°31'0 0.0
2017-Jun-21 15:58N 59°53' E 023°31'0 0.0
2017-Jun-21 15:28N 59°53' E 023°31'0 0.0
2017-Jun-21 14:58N 59°53' E 023°31'0 0.0
2017-Jun-21 14:28N 59°53' E 023°31'0 0.3
2017-Jun-21 13:30N 59°53' E 023°31'4 7.0
2017-Jun-21 13:00N 59°50' E 023°35'1 1.0
2017-Jun-21 12:28N 59°50' E 023°34'0 0.2
2017-Jun-21 11:56N 59°50' E 023°34'  

Dump ship's entire track history